createdAt,value
2022-11-19T00:00:05.145Z,3.44
2022-11-19T00:01:05.158Z,3.44
2022-11-19T00:02:05.196Z,3.33
2022-11-19T00:03:05.154Z,3.44
2022-11-19T00:04:05.159Z,3.44
2022-11-19T00:05:05.167Z,3.44
2022-11-19T00:06:05.165Z,3.17
2022-11-19T00:07:05.186Z,3.33
2022-11-19T00:08:05.318Z,3.17
2022-11-19T00:09:05.165Z,3.44
2022-11-19T00:10:05.156Z,3.17
2022-11-19T00:11:09.291Z,3.44
2022-11-19T00:12:05.197Z,3.44
2022-11-19T00:13:05.174Z,3.33
2022-11-19T00:14:05.180Z,3.33
2022-11-19T00:15:05.166Z,3.33
2022-11-19T00:16:05.167Z,3.33
2022-11-19T00:17:05.183Z,3.44
2022-11-19T00:18:05.172Z,3.33
2022-11-19T00:19:05.160Z,3.33
2022-11-19T00:20:05.238Z,3.33
2022-11-19T00:21:05.171Z,3.44
2022-11-19T00:22:05.168Z,3.33
2022-11-19T00:23:05.174Z,3.33
2022-11-19T00:24:05.212Z,3.44
2022-11-19T00:25:05.174Z,3.44
2022-11-19T00:26:05.175Z,3.44
2022-11-19T00:27:05.185Z,3.44
2022-11-19T00:28:05.185Z,3.56
2022-11-19T00:29:05.180Z,3.44
2022-11-19T00:30:10.917Z,3.56
2022-11-19T00:31:05.192Z,3.44
2022-11-19T00:32:05.198Z,3.44
2022-11-19T00:33:05.186Z,3.17
2022-11-19T00:34:05.185Z,3.44
2022-11-19T00:35:05.181Z,3.33
2022-11-19T00:36:05.191Z,3.44
2022-11-19T00:37:05.200Z,3.44
2022-11-19T00:38:05.194Z,3.33
2022-11-19T00:39:05.186Z,3.44
2022-11-19T00:40:05.210Z,3.33
2022-11-19T00:41:05.191Z,3.17
2022-11-19T00:42:05.205Z,3.33
2022-11-19T00:43:05.207Z,3.17
2022-11-19T00:44:05.197Z,3.17
2022-11-19T00:45:05.199Z,3
2022-11-19T00:46:05.194Z,3.33
2022-11-19T00:47:05.202Z,3.44
2022-11-19T00:48:05.205Z,3.44
2022-11-19T00:49:05.204Z,3
2022-11-19T00:50:05.198Z,3.17
2022-11-19T00:51:05.198Z,2.72
2022-11-19T00:52:05.195Z,3.28
2022-11-19T00:53:05.204Z,2.89
2022-11-19T00:54:05.198Z,3
2022-11-19T00:55:05.198Z,3
2022-11-19T00:56:05.222Z,3.17
2022-11-19T00:57:05.217Z,3
2022-11-19T00:58:05.208Z,2.89
2022-11-19T00:59:05.203Z,3
2022-11-19T01:00:05.209Z,3
2022-11-19T01:01:05.279Z,2.72
2022-11-19T01:02:05.218Z,3
2022-11-19T01:03:05.215Z,3
2022-11-19T01:04:05.213Z,3
2022-11-19T01:05:05.209Z,2.61
2022-11-19T01:06:05.217Z,3.17
2022-11-19T01:07:05.248Z,3
2022-11-19T01:08:05.215Z,3
2022-11-19T01:09:05.209Z,2.89
2022-11-19T01:10:05.241Z,2.89
2022-11-19T01:11:05.213Z,2.67
2022-11-19T01:12:05.355Z,2.89
2022-11-19T01:13:05.211Z,2.72
2022-11-19T01:14:05.214Z,2.72
2022-11-19T01:15:05.220Z,2.28
2022-11-19T01:16:05.215Z,2.61
2022-11-19T01:17:05.209Z,2.44
2022-11-19T01:18:05.220Z,2.83
2022-11-19T01:19:05.213Z,2.61
2022-11-19T01:20:05.261Z,2.72
2022-11-19T01:21:05.216Z,2.72
2022-11-19T01:22:05.225Z,2.72
2022-11-19T01:23:05.217Z,2.83
2022-11-19T01:24:05.214Z,2.61
2022-11-19T01:25:05.209Z,2.83
2022-11-19T01:26:05.224Z,2.94
2022-11-19T01:27:05.220Z,2.72
2022-11-19T01:28:05.245Z,2.83
2022-11-19T01:29:05.216Z,2.72
2022-11-19T01:30:05.214Z,2.61
2022-11-19T01:31:05.224Z,2.56
2022-11-19T01:32:05.223Z,2.61
2022-11-19T01:33:05.226Z,2.61
2022-11-19T01:34:05.220Z,2.61
2022-11-19T01:35:05.209Z,2.44
2022-11-19T01:36:05.221Z,2.83
2022-11-19T01:37:05.215Z,2.61
2022-11-19T01:38:05.217Z,2.61
2022-11-19T01:39:05.219Z,2.61
2022-11-19T01:40:05.215Z,2.72
2022-11-19T01:41:05.228Z,2.44
2022-11-19T01:42:05.217Z,2.44
2022-11-19T01:43:05.228Z,2.28
2022-11-19T01:44:05.247Z,2.28
2022-11-19T01:45:05.215Z,2.28
2022-11-19T01:46:05.232Z,2.11
2022-11-19T01:47:05.231Z,2.28
2022-11-19T01:48:05.227Z,2.17
2022-11-19T01:49:05.219Z,2.39
2022-11-19T01:50:05.230Z,2.39
2022-11-19T01:51:05.229Z,2.22
2022-11-19T01:52:05.226Z,2
2022-11-19T01:53:05.223Z,2
2022-11-19T01:54:05.231Z,2
2022-11-19T01:55:05.224Z,2.17
2022-11-19T01:56:05.233Z,2.44
2022-11-19T01:57:05.227Z,2.22
2022-11-19T01:58:05.234Z,2.17
2022-11-19T01:59:05.224Z,1.89
2022-11-19T02:00:05.267Z,1.89
2022-11-19T02:01:05.286Z,1.67
2022-11-19T02:02:05.230Z,2.22
2022-11-19T02:03:05.229Z,2.17
2022-11-19T02:04:05.242Z,2.22
2022-11-19T02:05:05.236Z,2.22
2022-11-19T02:06:05.242Z,2.17
2022-11-19T02:07:05.283Z,2.11
2022-11-19T02:08:05.236Z,2
2022-11-19T02:09:05.238Z,1.94
2022-11-19T02:10:05.239Z,2.17
2022-11-19T02:11:05.245Z,1.72
2022-11-19T02:12:05.244Z,1.72
2022-11-19T02:13:05.249Z,2.06
2022-11-19T02:14:05.240Z,1.72
2022-11-19T02:15:05.244Z,2.11
2022-11-19T02:16:05.270Z,2
2022-11-19T02:17:05.253Z,1.89
2022-11-19T02:18:05.259Z,2.06
2022-11-19T02:19:05.248Z,1.83
2022-11-19T02:20:05.251Z,2.28
2022-11-19T02:21:05.250Z,2.17
2022-11-19T02:22:05.248Z,1.61
2022-11-19T02:23:05.256Z,2.22
2022-11-19T02:24:05.254Z,1.5
2022-11-19T02:25:05.251Z,1.94
2022-11-19T02:26:05.258Z,1.89
2022-11-19T02:27:05.255Z,2.11
2022-11-19T02:28:05.257Z,1.89
2022-11-19T02:29:05.251Z,1.94
2022-11-19T02:30:05.260Z,1.94
2022-11-19T02:31:05.260Z,1.94
2022-11-19T02:32:05.292Z,1.72
2022-11-19T02:33:05.261Z,1.72
2022-11-19T02:34:05.263Z,1.72
2022-11-19T02:35:05.258Z,2.11
2022-11-19T02:36:05.256Z,1.83
2022-11-19T02:37:05.261Z,2.11
2022-11-19T02:38:05.266Z,1.89
2022-11-19T02:39:05.263Z,2
2022-11-19T02:40:05.261Z,2.17
2022-11-19T02:41:05.263Z,2
2022-11-19T02:42:05.259Z,1.72
2022-11-19T02:43:05.261Z,2.17
2022-11-19T02:44:05.264Z,2.28
2022-11-19T02:45:05.269Z,2.17
2022-11-19T02:46:05.269Z,1.89
2022-11-19T02:47:05.283Z,1.89
2022-11-19T02:48:05.312Z,1.94
2022-11-19T02:49:05.280Z,1.72
2022-11-19T02:50:05.273Z,1.56
2022-11-19T02:51:05.280Z,1.5
2022-11-19T02:52:05.280Z,1.5
2022-11-19T02:53:05.277Z,1.39
2022-11-19T02:54:05.272Z,1.28
2022-11-19T02:55:05.284Z,1.11
2022-11-19T02:56:05.283Z,1.33
2022-11-19T02:57:05.283Z,1.33
2022-11-19T02:58:05.279Z,1.11
2022-11-19T02:59:05.288Z,0.94
2022-11-19T03:00:05.287Z,1.56
2022-11-19T03:01:05.324Z,1.39
2022-11-19T03:02:05.293Z,1.56
2022-11-19T03:03:05.284Z,1.5
2022-11-19T03:04:05.320Z,1.72
2022-11-19T03:05:05.294Z,1.61
2022-11-19T03:06:05.292Z,1.33
2022-11-19T03:07:05.322Z,1.61
2022-11-19T03:08:05.298Z,1.33
2022-11-19T03:09:05.305Z,1.61
2022-11-19T03:10:05.304Z,1.33
2022-11-19T03:11:05.295Z,1.11
2022-11-19T03:12:05.304Z,1.33
2022-11-19T03:13:05.308Z,1.33
2022-11-19T03:14:05.301Z,1.5
2022-11-19T03:15:05.301Z,1.5
2022-11-19T03:16:05.308Z,1.33
2022-11-19T03:17:05.303Z,1.5
2022-11-19T03:18:05.304Z,1.61
2022-11-19T03:19:05.297Z,1.72
2022-11-19T03:20:05.343Z,1.72
2022-11-19T03:21:05.298Z,1.72
2022-11-19T03:22:05.309Z,1.61
2022-11-19T03:23:05.304Z,1.72
2022-11-19T03:24:05.310Z,1.89
2022-11-19T03:25:05.320Z,2.11
2022-11-19T03:26:05.311Z,1.89
2022-11-19T03:27:05.319Z,1.72
2022-11-19T03:28:05.322Z,2
2022-11-19T03:29:05.328Z,1.61
2022-11-19T03:30:05.329Z,1.72
2022-11-19T03:31:05.323Z,1.89
2022-11-19T03:32:05.322Z,1.72
2022-11-19T03:33:05.326Z,1.72
2022-11-19T03:34:05.320Z,1.5
2022-11-19T03:35:05.323Z,1.61
2022-11-19T03:36:05.345Z,1.39
2022-11-19T03:37:05.327Z,1.17
2022-11-19T03:38:05.329Z,1.33
2022-11-19T03:39:05.323Z,1.33
2022-11-19T03:40:05.342Z,0.94
2022-11-19T03:41:05.328Z,1.33
2022-11-19T03:42:05.321Z,1.33
2022-11-19T03:43:05.328Z,1.5
2022-11-19T03:44:05.332Z,1.33
2022-11-19T03:45:05.347Z,1.06
2022-11-19T03:46:05.329Z,1.17
2022-11-19T03:47:05.338Z,1.06
2022-11-19T03:48:05.343Z,0.89
2022-11-19T03:49:05.334Z,0.89
2022-11-19T03:50:05.339Z,0.89
2022-11-19T03:51:05.343Z,0.72
2022-11-19T03:52:05.377Z,1.06
2022-11-19T03:53:05.345Z,1.06
2022-11-19T03:54:05.343Z,1.06
2022-11-19T03:55:05.345Z,1.17
2022-11-19T03:56:05.347Z,1.06
2022-11-19T03:57:05.347Z,1.06
2022-11-19T03:58:05.353Z,0.72
2022-11-19T03:59:06.966Z,0.72
2022-11-19T04:00:05.350Z,0.72
2022-11-19T04:01:05.349Z,0.89
2022-11-19T04:02:05.393Z,1.33
2022-11-19T04:03:05.356Z,1.33
2022-11-19T04:04:05.369Z,1.33
2022-11-19T04:05:05.359Z,1.33
2022-11-19T04:06:05.356Z,1.33
2022-11-19T04:07:05.401Z,1.17
2022-11-19T04:08:05.388Z,1.5
2022-11-19T04:09:05.369Z,1.5
2022-11-19T04:10:05.370Z,1.33
2022-11-19T04:12:05.361Z,1.5
2022-11-19T04:13:05.370Z,1.06
2022-11-19T04:14:05.372Z,1.72
2022-11-19T04:15:05.369Z,1.61
2022-11-19T04:16:05.379Z,1.61
2022-11-19T04:17:05.377Z,1.61
2022-11-19T04:18:05.383Z,1.61
2022-11-19T04:19:05.378Z,1.72
2022-11-19T04:20:05.375Z,1.61
2022-11-19T04:21:05.377Z,1.61
2022-11-19T04:22:05.395Z,1.72
2022-11-19T04:23:05.386Z,1.72
2022-11-19T04:24:05.418Z,1.61
2022-11-19T04:25:05.397Z,1.72
2022-11-19T04:26:05.378Z,1.61
2022-11-19T04:27:05.382Z,1.61
2022-11-19T04:28:05.396Z,1.5
2022-11-19T04:29:05.407Z,1.33
2022-11-19T04:30:05.399Z,1.33
2022-11-19T04:31:05.399Z,1.72
2022-11-19T04:32:05.395Z,1.61
2022-11-19T04:33:05.388Z,1.33
2022-11-19T04:34:05.385Z,1.33
2022-11-19T04:35:05.399Z,1.33
2022-11-19T04:36:05.411Z,1.33
2022-11-19T04:37:05.402Z,1.5
2022-11-19T04:38:05.409Z,1.33
2022-11-19T04:39:05.394Z,1.5
2022-11-19T04:40:05.424Z,1.61
2022-11-19T04:41:05.409Z,1.33
2022-11-19T04:42:05.401Z,1.61
2022-11-19T04:43:05.409Z,1.61
2022-11-19T04:44:05.409Z,1.72
2022-11-19T04:45:05.415Z,1.61
2022-11-19T04:46:05.410Z,1.5
2022-11-19T04:47:05.407Z,1.61
2022-11-19T04:48:05.410Z,1.72
2022-11-19T04:49:05.417Z,1.72
2022-11-19T04:50:05.422Z,1.72
2022-11-19T04:51:05.419Z,1.5
2022-11-19T04:52:05.415Z,1.33
2022-11-19T04:53:05.427Z,1.72
2022-11-19T04:54:05.418Z,1.72
2022-11-19T04:55:05.423Z,1.61
2022-11-19T04:56:05.464Z,1.5
2022-11-19T04:57:05.436Z,1.72
2022-11-19T04:58:05.433Z,1.72
2022-11-19T04:59:05.450Z,1.61
2022-11-19T05:00:05.425Z,1.72
2022-11-19T05:01:05.502Z,1.72
2022-11-19T05:02:05.429Z,1.61
2022-11-19T05:03:05.430Z,1.61
2022-11-19T05:04:05.434Z,1.72
2022-11-19T05:05:05.429Z,1.61
2022-11-19T05:06:05.437Z,1.89
2022-11-19T05:07:05.489Z,1.89
2022-11-19T05:08:05.443Z,1.72
2022-11-19T05:09:05.429Z,1.72
2022-11-19T05:10:05.433Z,1.72
2022-11-19T05:11:05.444Z,1.72
2022-11-19T05:12:05.463Z,1.72
2022-11-19T05:13:05.442Z,1.72
2022-11-19T05:14:05.446Z,1.61
2022-11-19T05:15:05.442Z,1.72
2022-11-19T05:16:05.443Z,1.61
2022-11-19T05:17:05.445Z,1.72
2022-11-19T05:18:05.443Z,1.72
2022-11-19T05:19:05.455Z,1.89
2022-11-19T05:20:05.454Z,1.89
2022-11-19T05:21:05.442Z,1.72
2022-11-19T05:22:05.444Z,1.61
2022-11-19T05:23:05.449Z,1.72
2022-11-19T05:24:05.449Z,1.89
2022-11-19T05:25:05.452Z,1.61
2022-11-19T05:26:05.456Z,2
2022-11-19T05:27:05.448Z,1.72
2022-11-19T05:28:05.480Z,2
2022-11-19T05:29:05.456Z,1.72
2022-11-19T05:30:05.455Z,1.72
2022-11-19T05:31:05.459Z,2
2022-11-19T05:32:05.459Z,1.72
2022-11-19T05:33:05.454Z,1.89
2022-11-19T05:34:05.455Z,1.61
2022-11-19T05:35:05.446Z,1.72
2022-11-19T05:36:05.455Z,1.89
2022-11-19T05:37:05.476Z,1.5
2022-11-19T05:38:05.458Z,2.17
2022-11-19T05:39:05.460Z,2
2022-11-19T05:40:05.448Z,2.17
2022-11-19T05:41:05.461Z,2
2022-11-19T05:42:05.455Z,2.28
2022-11-19T05:43:05.460Z,2
2022-11-19T05:44:05.489Z,2.17
2022-11-19T05:45:05.458Z,2
2022-11-19T05:46:05.469Z,2.17
2022-11-19T05:47:05.463Z,2.17
2022-11-19T05:48:05.463Z,2.28
2022-11-19T05:49:05.464Z,2
2022-11-19T05:50:05.465Z,1.61
2022-11-19T05:51:05.466Z,2.17
2022-11-19T05:52:05.461Z,2.17
2022-11-19T05:53:05.456Z,2.17
2022-11-19T05:54:05.511Z,1.89
2022-11-19T05:55:05.470Z,1.89
2022-11-19T05:56:05.466Z,2
2022-11-19T05:57:05.463Z,2.17
2022-11-19T05:58:05.469Z,2
2022-11-19T05:59:05.470Z,2.17
2022-11-19T06:00:05.502Z,2
2022-11-19T06:01:05.466Z,1.89
2022-11-19T06:02:05.466Z,2
2022-11-19T06:03:05.601Z,2.17
2022-11-19T06:04:05.465Z,2
2022-11-19T06:05:05.465Z,1.89
2022-11-19T06:06:05.466Z,2.17
2022-11-19T06:07:05.541Z,2.17
2022-11-19T06:08:05.471Z,1.89
2022-11-19T06:09:05.467Z,2.17
2022-11-19T06:10:05.467Z,2.17
2022-11-19T06:11:05.468Z,2
2022-11-19T06:12:05.470Z,2.17
2022-11-19T06:13:05.472Z,2.17
2022-11-19T06:14:05.479Z,2.17
2022-11-19T06:15:05.474Z,2.17
2022-11-19T06:16:05.499Z,2.28
2022-11-19T06:17:05.476Z,2.17
2022-11-19T06:18:05.471Z,1.89
2022-11-19T06:19:05.472Z,2
2022-11-19T06:20:05.471Z,1.89
2022-11-19T06:21:09.452Z,1.89
2022-11-19T06:22:05.469Z,2
2022-11-19T06:23:05.476Z,1.89
2022-11-19T06:24:05.473Z,1.72
2022-11-19T06:25:05.483Z,1.89
2022-11-19T06:26:05.478Z,2.17
2022-11-19T06:27:05.482Z,1.89
2022-11-19T06:28:05.473Z,1.89
2022-11-19T06:29:05.476Z,1.89
2022-11-19T06:30:05.480Z,1.89
2022-11-19T06:31:05.475Z,2
2022-11-19T06:32:05.506Z,2.17
2022-11-19T06:33:05.475Z,1.72
2022-11-19T06:34:05.477Z,1.89
2022-11-19T06:35:05.477Z,2.17
2022-11-19T06:36:05.486Z,1.89
2022-11-19T06:37:05.480Z,1.89
2022-11-19T06:38:05.482Z,2
2022-11-19T06:39:05.488Z,2
2022-11-19T06:40:05.488Z,1.89
2022-11-19T06:41:05.481Z,2.17
2022-11-19T06:42:05.482Z,2
2022-11-19T06:43:05.487Z,1.89
2022-11-19T06:44:05.495Z,2
2022-11-19T06:45:05.491Z,2
2022-11-19T06:46:05.487Z,2.17
2022-11-19T06:47:05.496Z,2.17
2022-11-19T06:48:05.519Z,2.17
2022-11-19T06:49:05.486Z,2.28
2022-11-19T06:50:05.490Z,2.28
2022-11-19T06:51:05.494Z,2.17
2022-11-19T06:52:05.499Z,2.17
2022-11-19T06:53:05.495Z,1.89
2022-11-19T06:54:05.499Z,1.72
2022-11-19T06:55:05.495Z,2.17
2022-11-19T06:56:05.501Z,2
2022-11-19T06:57:05.507Z,2.44
2022-11-19T06:58:05.501Z,2.17
2022-11-19T06:59:05.505Z,2.17
2022-11-19T07:00:05.499Z,2
2022-11-19T07:01:05.499Z,2
2022-11-19T07:02:05.653Z,1.89
2022-11-19T07:03:05.500Z,2.28
2022-11-19T07:04:05.643Z,2.28
2022-11-19T07:05:05.512Z,2.17
2022-11-19T07:06:05.508Z,2.17
2022-11-19T07:07:05.522Z,2.28
2022-11-19T07:08:05.508Z,2.28
2022-11-19T07:09:05.514Z,2.72
2022-11-19T07:10:05.516Z,2.17
2022-11-19T07:11:05.514Z,2.28
2022-11-19T07:12:05.516Z,2.17
2022-11-19T07:13:05.514Z,1.89
2022-11-19T07:14:05.508Z,2.61
2022-11-19T07:15:05.513Z,1.72
2022-11-19T07:16:05.529Z,1.61
2022-11-19T07:17:05.519Z,2.28
2022-11-19T07:18:05.516Z,2.44
2022-11-19T07:19:05.516Z,2.44
2022-11-19T07:20:05.538Z,2.44
2022-11-19T07:21:05.517Z,2.44
2022-11-19T07:22:05.522Z,2.28
2022-11-19T07:23:05.523Z,2
2022-11-19T07:24:05.518Z,2
2022-11-19T07:25:05.519Z,2.28
2022-11-19T07:26:05.519Z,2.17
2022-11-19T07:27:05.518Z,2.44
2022-11-19T07:28:05.530Z,2.61
2022-11-19T07:29:05.521Z,2.61
2022-11-19T07:30:05.525Z,2.17
2022-11-19T07:31:05.525Z,2.61
2022-11-19T07:32:05.527Z,2.61
2022-11-19T07:33:05.518Z,2.61
2022-11-19T07:34:05.517Z,2.44
2022-11-19T07:35:05.516Z,2.61
2022-11-19T07:36:05.541Z,2.28
2022-11-19T07:37:05.528Z,2.44
2022-11-19T07:38:05.533Z,2.61
2022-11-19T07:39:05.528Z,2.61
2022-11-19T07:40:05.527Z,2.61
2022-11-19T07:41:05.520Z,2.61
2022-11-19T07:42:05.520Z,2.44
2022-11-19T07:43:05.525Z,2.44
2022-11-19T07:44:05.527Z,2.17
2022-11-19T07:45:05.529Z,2.28
2022-11-19T07:46:05.527Z,2.44
2022-11-19T07:47:05.529Z,2.44
2022-11-19T07:48:05.536Z,2.17
2022-11-19T07:49:05.550Z,2.61
2022-11-19T07:50:05.534Z,2.44
2022-11-19T07:51:05.531Z,2.44
2022-11-19T07:52:05.555Z,2.61
2022-11-19T07:53:05.532Z,3
2022-11-19T07:54:05.530Z,3.33
2022-11-19T07:55:05.535Z,2.72
2022-11-19T07:56:05.538Z,3.17
2022-11-19T07:57:05.536Z,3
2022-11-19T07:58:05.530Z,3
2022-11-19T07:59:05.580Z,2.89
2022-11-19T08:00:05.540Z,3
2022-11-19T08:01:05.536Z,2.89
2022-11-19T08:02:05.564Z,3.33
2022-11-19T08:03:05.537Z,3.33
2022-11-19T08:04:05.544Z,3.44
2022-11-19T08:05:05.540Z,3.17
2022-11-19T08:06:05.541Z,3.44
2022-11-19T08:07:05.557Z,3.44
2022-11-19T08:08:05.570Z,3.72
2022-11-19T08:09:05.538Z,3.72
2022-11-19T08:10:05.537Z,3.72
2022-11-19T08:11:05.522Z,3.83
2022-11-19T08:12:05.540Z,3.56
2022-11-19T08:13:05.542Z,3.56
2022-11-19T08:14:05.530Z,3.44
2022-11-19T08:15:05.536Z,3.44
2022-11-19T08:16:05.547Z,3
2022-11-19T08:17:05.556Z,2.61
2022-11-19T08:18:05.548Z,2.89
2022-11-19T08:19:05.539Z,2.89
2022-11-19T08:20:05.534Z,3
2022-11-19T08:21:05.538Z,2.89
2022-11-19T08:22:05.538Z,2.72
2022-11-19T08:23:05.547Z,2.72
2022-11-19T08:24:05.559Z,3.17
2022-11-19T08:25:05.547Z,3
2022-11-19T08:26:05.537Z,2.89
2022-11-19T08:27:05.546Z,3.17
2022-11-19T08:28:05.549Z,3.33
2022-11-19T08:29:05.546Z,3.33
2022-11-19T08:30:05.545Z,3.44
2022-11-19T08:31:05.544Z,3.44
2022-11-19T08:32:05.547Z,3.56
2022-11-19T08:33:05.539Z,3.44
2022-11-19T08:34:05.544Z,3.56
2022-11-19T08:35:05.553Z,3.83
2022-11-19T08:36:05.546Z,3.83
2022-11-19T08:37:05.546Z,4.17
2022-11-19T08:38:05.552Z,3.72
2022-11-19T08:39:05.546Z,3.72
2022-11-19T08:40:05.576Z,3.72
2022-11-19T08:41:05.540Z,3.44
2022-11-19T08:42:05.544Z,3.83
2022-11-19T08:43:05.540Z,4
2022-11-19T08:44:05.543Z,4
2022-11-19T08:45:05.553Z,4.28
2022-11-19T08:46:05.537Z,4.44
2022-11-19T08:47:05.554Z,3.56
2022-11-19T08:48:05.546Z,3.83
2022-11-19T08:49:05.557Z,3.56
2022-11-19T08:50:05.554Z,3.83
2022-11-19T08:51:05.565Z,4
2022-11-19T08:52:05.559Z,4
2022-11-19T08:53:05.549Z,4.17
2022-11-19T08:54:05.559Z,4.28
2022-11-19T08:55:05.566Z,4.17
2022-11-19T08:56:05.586Z,4.17
2022-11-19T08:57:05.568Z,4.28
2022-11-19T08:58:05.561Z,4
2022-11-19T08:59:05.566Z,4.56
2022-11-19T09:00:06.363Z,4.72
2022-11-19T09:01:05.619Z,4.72
2022-11-19T09:02:05.582Z,4.56
2022-11-19T09:03:05.578Z,4.44
2022-11-19T09:04:05.571Z,4.56
2022-11-19T09:05:05.574Z,4.44
2022-11-19T09:06:05.571Z,4.28
2022-11-19T09:07:05.601Z,4.17
2022-11-19T09:08:05.575Z,4.44
2022-11-19T09:09:05.578Z,4.56
2022-11-19T09:10:05.567Z,3.83
2022-11-19T09:11:05.586Z,4.56
2022-11-19T09:12:05.603Z,4.56
2022-11-19T09:13:05.589Z,4.28
2022-11-19T09:14:05.584Z,4.72
2022-11-19T09:15:05.595Z,4.72
2022-11-19T09:16:05.585Z,4.44
2022-11-19T09:17:05.589Z,4.89
2022-11-19T09:18:05.592Z,4.89
2022-11-19T09:19:05.624Z,5.17
2022-11-19T09:20:05.592Z,5.44
2022-11-19T09:21:05.606Z,5.44
2022-11-19T09:22:05.599Z,5.17
2022-11-19T09:23:05.587Z,4.56
2022-11-19T09:24:05.597Z,5
2022-11-19T09:25:05.598Z,5.17
2022-11-19T09:26:05.598Z,5.44
2022-11-19T09:27:05.600Z,5.33
2022-11-19T09:28:05.621Z,5.44
2022-11-19T09:29:05.604Z,5.33
2022-11-19T09:30:05.602Z,5.44
2022-11-19T09:31:05.601Z,5.17
2022-11-19T09:32:05.603Z,4.89
2022-11-19T09:33:05.608Z,4.72
2022-11-19T09:34:05.603Z,4.72
2022-11-19T09:35:05.605Z,5
2022-11-19T09:36:05.600Z,5
2022-11-19T09:37:05.617Z,5
2022-11-19T09:38:05.618Z,4.5
2022-11-19T09:39:05.615Z,4.5
2022-11-19T09:40:05.607Z,4.83
2022-11-19T09:41:05.620Z,4.89
2022-11-19T09:42:05.608Z,5.22
2022-11-19T09:43:05.617Z,5.22
2022-11-19T09:44:05.625Z,5.22
2022-11-19T09:45:05.622Z,5.17
2022-11-19T09:46:05.621Z,5.39
2022-11-19T09:47:05.625Z,5.44
2022-11-19T09:48:05.621Z,5.67
2022-11-19T09:49:05.618Z,5.67
2022-11-19T09:50:05.622Z,5.44
2022-11-19T09:51:05.620Z,6
2022-11-19T09:52:05.621Z,6
2022-11-19T09:53:05.619Z,6.28
2022-11-19T09:54:05.630Z,6.39
2022-11-19T09:55:05.617Z,6.22
2022-11-19T09:56:05.618Z,5.94
2022-11-19T09:57:05.622Z,6.28
2022-11-19T09:58:05.633Z,6.22
2022-11-19T09:59:05.616Z,6.17
2022-11-19T10:00:05.738Z,6.39
2022-11-19T10:01:05.634Z,6.78
2022-11-19T10:02:05.627Z,6.94
2022-11-19T10:03:05.676Z,7
2022-11-19T10:04:05.614Z,6.06
2022-11-19T10:05:05.631Z,5.67
2022-11-19T10:06:05.635Z,6.06
2022-11-19T10:07:05.655Z,5.78
2022-11-19T10:08:05.624Z,5.78
2022-11-19T10:09:05.628Z,5.56
2022-11-19T10:10:10.822Z,5.56
2022-11-19T10:11:05.629Z,5.78
2022-11-19T10:12:05.629Z,6.06
2022-11-19T10:13:05.629Z,6.39
2022-11-19T10:14:05.635Z,5.78
2022-11-19T10:15:05.632Z,5.78
2022-11-19T10:16:05.664Z,5.56
2022-11-19T10:17:05.637Z,5.22
2022-11-19T10:18:05.634Z,6.22
2022-11-19T10:19:05.666Z,5.94
2022-11-19T10:20:05.636Z,5.94
2022-11-19T10:21:05.645Z,5.67
2022-11-19T10:22:05.648Z,5.39
2022-11-19T10:23:05.638Z,5.67
2022-11-19T10:24:05.644Z,6.67
2022-11-19T10:25:05.650Z,6.22
2022-11-19T10:26:05.646Z,5.78
2022-11-19T10:27:08.597Z,6.06
2022-11-19T10:28:05.641Z,6.06
2022-11-19T10:29:05.649Z,5.67
2022-11-19T10:30:05.646Z,5.67
2022-11-19T10:31:05.638Z,6.22
2022-11-19T10:32:05.678Z,6.06
2022-11-19T10:33:05.649Z,5.78
2022-11-19T10:34:05.653Z,6.06
2022-11-19T10:35:05.647Z,6.5
2022-11-19T10:36:05.656Z,6.67
2022-11-19T10:37:05.646Z,7.22
2022-11-19T10:38:05.640Z,7.5
2022-11-19T10:39:05.652Z,7.67
2022-11-19T10:40:05.645Z,7.22
2022-11-19T10:41:05.647Z,6.5
2022-11-19T10:42:05.653Z,6.78
2022-11-19T10:43:05.657Z,6.67
2022-11-19T10:44:05.653Z,7.22
2022-11-19T10:45:05.651Z,7.5
2022-11-19T10:46:05.648Z,7.5
2022-11-19T10:47:05.653Z,7.5
2022-11-19T10:48:09.068Z,7.5
2022-11-19T10:49:05.657Z,6.67
2022-11-19T10:50:09.931Z,6.67
2022-11-19T10:51:05.644Z,6.67
2022-11-19T10:52:05.656Z,6.22
2022-11-19T10:53:05.658Z,6.67
2022-11-19T10:54:05.654Z,6.39
2022-11-19T10:55:05.651Z,6.39
2022-11-19T10:56:05.654Z,6.78
2022-11-19T10:57:05.654Z,7.39
2022-11-19T10:58:05.658Z,6.78
2022-11-19T10:59:05.660Z,6.94
2022-11-19T11:00:05.752Z,6.22
2022-11-19T11:01:05.687Z,6.5
2022-11-19T11:02:05.644Z,6.67
2022-11-19T11:03:05.658Z,6.67
2022-11-19T11:04:05.674Z,6.94
2022-11-19T11:05:05.650Z,7.11
2022-11-19T11:06:05.656Z,7.11
2022-11-19T11:07:05.747Z,7.11
2022-11-19T11:08:05.655Z,7.5
2022-11-19T11:09:05.651Z,8.11
2022-11-19T11:10:05.662Z,7.78
2022-11-19T11:11:05.654Z,8.11
2022-11-19T11:12:05.665Z,7.94
2022-11-19T11:13:05.660Z,8.28
2022-11-19T11:14:05.650Z,8.78
2022-11-19T11:15:05.657Z,8.11
2022-11-19T11:16:05.655Z,7.94
2022-11-19T11:17:05.658Z,7.67
2022-11-19T11:18:05.663Z,6.78
2022-11-19T11:19:05.662Z,6.67
2022-11-19T11:20:05.694Z,6.94
2022-11-19T11:21:05.669Z,6.78
2022-11-19T11:22:05.666Z,6.67
2022-11-19T11:23:05.675Z,6.78
2022-11-19T11:24:05.667Z,6.94
2022-11-19T11:25:07.401Z,7.22
2022-11-19T11:26:05.673Z,6.94
2022-11-19T11:27:05.672Z,7.39
2022-11-19T11:28:05.677Z,7.39
2022-11-19T11:29:05.686Z,7.11
2022-11-19T11:30:05.688Z,7.39
2022-11-19T11:31:05.679Z,7.94
2022-11-19T11:32:05.686Z,7.94
2022-11-19T11:33:08.805Z,7.94
2022-11-19T11:34:05.681Z,8.78
2022-11-19T11:35:08.297Z,8.94
2022-11-19T11:36:05.712Z,9.22
2022-11-19T11:37:05.681Z,8.78
2022-11-19T11:38:05.697Z,9.22
2022-11-19T11:39:05.690Z,9.22
2022-11-19T11:40:05.691Z,9.39
2022-11-19T11:41:41.968Z,9.22
2022-11-19T11:42:06.869Z,9.5
2022-11-19T11:43:05.700Z,9.67
2022-11-19T11:44:05.687Z,9.22
2022-11-19T11:45:05.699Z,9.22
2022-11-19T11:46:05.700Z,9.22
2022-11-19T11:47:05.693Z,9.5
2022-11-19T11:48:05.695Z,9.67
2022-11-19T11:49:09.828Z,9.39
2022-11-19T11:50:05.702Z,9.22
2022-11-19T11:51:05.701Z,9.22
2022-11-19T11:52:05.721Z,9.67
2022-11-19T11:53:05.700Z,8.94
2022-11-19T11:54:05.690Z,8.78
2022-11-19T11:55:05.709Z,9.22
2022-11-19T11:56:05.704Z,8.78
2022-11-19T11:57:05.709Z,9.06
2022-11-19T11:58:05.706Z,8.94
2022-11-19T11:59:05.696Z,8.61
2022-11-19T12:00:05.701Z,8.39
2022-11-19T12:01:05.710Z,8.61
2022-11-19T12:02:05.745Z,9.22
2022-11-19T12:03:05.706Z,9.5
2022-11-19T12:04:05.705Z,9.67
2022-11-19T12:05:05.718Z,9.22
2022-11-19T12:06:05.720Z,9.67
2022-11-19T12:07:05.800Z,9.67
2022-11-19T12:08:05.735Z,9.5
2022-11-19T12:09:05.704Z,9.94
2022-11-19T12:10:05.713Z,9.78
2022-11-19T12:11:05.723Z,9.39
2022-11-19T12:12:05.721Z,9.67
2022-11-19T12:13:05.720Z,9.22
2022-11-19T12:14:09.720Z,8.94
2022-11-19T12:15:05.727Z,9.39
2022-11-19T12:16:05.730Z,8.39
2022-11-19T12:17:05.730Z,8.39
2022-11-19T12:18:05.726Z,8.78
2022-11-19T12:19:05.730Z,8.78
2022-11-19T12:20:05.731Z,8.61
2022-11-19T12:21:08.815Z,8.11
2022-11-19T12:22:05.750Z,8.28
2022-11-19T12:23:05.740Z,8.11
2022-11-19T12:24:05.762Z,8.28
2022-11-19T12:25:05.736Z,8.61
2022-11-19T12:26:05.750Z,9.06
2022-11-19T12:27:05.742Z,8.78
2022-11-19T12:28:05.747Z,9.22
2022-11-19T12:29:05.742Z,8.78
2022-11-19T12:30:05.813Z,8.5
2022-11-19T12:31:05.752Z,8.78
2022-11-19T12:32:05.763Z,9.39
2022-11-19T12:33:05.746Z,9.67
2022-11-19T12:34:05.757Z,9.67
2022-11-19T12:35:05.746Z,9.06
2022-11-19T12:36:05.757Z,8.61
2022-11-19T12:37:05.753Z,8.5
2022-11-19T12:38:05.765Z,8.39
2022-11-19T12:39:05.762Z,8.78
2022-11-19T12:40:05.781Z,9.06
2022-11-19T12:41:05.759Z,9.06
2022-11-19T12:42:05.778Z,8.94
2022-11-19T12:43:05.772Z,8.94
2022-11-19T12:44:05.753Z,8.78
2022-11-19T12:45:05.771Z,8.78
2022-11-19T12:46:05.766Z,9.06
2022-11-19T12:47:05.776Z,9.22
2022-11-19T12:48:05.780Z,9.67
2022-11-19T12:49:05.774Z,8.78
2022-11-19T12:50:05.776Z,8.78
2022-11-19T12:51:05.773Z,9.22
2022-11-19T12:52:05.777Z,9.5
2022-11-19T12:53:05.781Z,9.22
2022-11-19T12:54:05.787Z,8.94
2022-11-19T12:55:05.777Z,8.61
2022-11-19T12:56:05.822Z,8.61
2022-11-19T12:57:05.810Z,8.94
2022-11-19T12:58:05.789Z,8.61
2022-11-19T12:59:05.789Z,8.61
2022-11-19T13:00:05.789Z,8.61
2022-11-19T13:01:05.824Z,8.17
2022-11-19T13:02:05.794Z,8.17
2022-11-19T13:03:05.797Z,8.44
2022-11-19T13:04:05.790Z,8.17
2022-11-19T13:05:05.792Z,8.33
2022-11-19T13:06:05.795Z,8.61
2022-11-19T13:07:05.865Z,8.61
2022-11-19T13:08:05.811Z,8.61
2022-11-19T13:09:05.796Z,8.33
2022-11-19T13:10:05.801Z,8.17
2022-11-19T13:11:05.801Z,8.33
2022-11-19T13:12:05.840Z,8.61
2022-11-19T13:13:05.805Z,8.33
2022-11-19T13:14:05.813Z,8.44
2022-11-19T13:15:05.809Z,8.33
2022-11-19T13:16:05.815Z,7.89
2022-11-19T13:17:05.805Z,7.89
2022-11-19T13:18:05.807Z,7.89
2022-11-19T13:19:05.809Z,8.33
2022-11-19T13:20:05.810Z,8.44
2022-11-19T13:21:05.808Z,8.83
2022-11-19T13:22:05.811Z,8.67
2022-11-19T13:23:05.821Z,8.33
2022-11-19T13:24:05.823Z,8.33
2022-11-19T13:25:05.825Z,8
2022-11-19T13:26:05.826Z,7.72
2022-11-19T13:27:05.820Z,7.61